CheckWX is a tool to help pilots better visualize weather data.  It is not intended as a substitute for an official pre-flight weather briefing.

22:36:50 UTC

KHYI METAR
San Marcos Regional Airport
Austin, Texas, USA
Current

41 mins ago

KHYI 222156Z 02008KT 10SM OVC060 15/11 A3001 RMK AO2 SLP157 T01500111
Observed
Nov-22 @ 21:56 UTC
Wind
  • 020° at 8 KTS
Visibility
10 SM
Flight Rules
VFR
Cloud Levels
  • Overcast at 6,000' AGL
Temperature
15°C / 59°F
Dewpoint
11°C / 52°F
Humidity
77%
Altimeter
30.01" Hg
Pressure
1016.22 hPa
Previous

2 hours ago

KHYI 222056Z 03008KT 10SM OVC050 13/11 A3002 RMK AO2 SLP162 60002 T01330111 56023
Observed
Nov-22 @ 20:56 UTC
Wind
  • 030° at 8 KTS
Visibility
10 SM
Flight Rules
VFR
Cloud Levels
  • Overcast at 5,000' AGL
Temperature
13°C / 55°F
Dewpoint
11°C / 52°F
Humidity
88%
Altimeter
30.02" Hg
Pressure
1016.62 hPa
Previous

3 hours ago

KHYI 221956Z 01009KT 10SM OVC040 12/11 A3004 RMK AO2 SLP166 T01220106
Observed
Nov-22 @ 19:56 UTC
Wind
  • 010° at 9 KTS
Visibility
10 SM
Flight Rules
VFR
Cloud Levels
  • Overcast at 4,000' AGL
Temperature
12°C / 54°F
Dewpoint
11°C / 52°F
Humidity
94%
Altimeter
30.04" Hg
Pressure
1017.32 hPa